createdAt,value
2019-05-06T00:01:33.789Z,91047.19
2019-05-06T00:04:21.556Z,91048.92
2019-05-06T00:07:10.132Z,91044.08
2019-05-06T00:09:58.439Z,91046.39
2019-05-06T00:12:47.006Z,91045.09
2019-05-06T00:15:35.502Z,91038.63
2019-05-06T00:18:24.546Z,91047.88
2019-05-06T00:21:14.747Z,91047.35
2019-05-06T00:24:03.902Z,91037.66
2019-05-06T00:27:14.014Z,91030.06
2019-05-06T00:30:01.398Z,91030.13
2019-05-06T00:32:49.065Z,91028.55
2019-05-06T00:35:37.403Z,91023.39
2019-05-06T00:38:25.652Z,91026.05
2019-05-06T00:41:18.618Z,91031.47
2019-05-06T00:44:06.947Z,91036.55
2019-05-06T00:46:55.344Z,91032.17
2019-05-06T00:49:43.784Z,91037.48
2019-05-06T00:52:31.531Z,91029.42
2019-05-06T00:55:19.800Z,91031.88
2019-05-06T00:58:07.620Z,91029.19
2019-05-06T01:00:55.885Z,91029.48
2019-05-06T01:03:44.297Z,91027.22
2019-05-06T01:06:33.833Z,91031.19
2019-05-06T01:09:23.524Z,91030.13
2019-05-06T01:12:11.456Z,91035.19
2019-05-06T01:15:00.192Z,91029.69
2019-05-06T01:17:48.171Z,91036.88
2019-05-06T01:20:36.887Z,91037.52
2019-05-06T01:23:24.960Z,91040.19
2019-05-06T01:26:15.032Z,91042.98
2019-05-06T01:29:04.215Z,91042.72
2019-05-06T01:31:54.389Z,91045.44
2019-05-06T01:34:41.935Z,91046.08
2019-05-06T01:37:30.096Z,91038.95
2019-05-06T01:40:29.352Z,91043.22
2019-05-06T01:43:24.052Z,91046.02
2019-05-06T01:46:11.359Z,91036.84
2019-05-06T01:48:59.895Z,91048.36
2019-05-06T01:51:48.266Z,91036.33
2019-05-06T01:54:36.704Z,91043.92
2019-05-06T01:57:25.287Z,91030.06
2019-05-06T02:00:14.123Z,91034.28
2019-05-06T02:03:04.019Z,91034.22
2019-05-06T02:05:54.003Z,91024.52
2019-05-06T02:08:44.529Z,91022.07
2019-05-06T02:11:33.691Z,91022.41
2019-05-06T02:14:21.803Z,91026.69
2019-05-06T02:17:09.868Z,91022.76
2019-05-06T02:19:57.713Z,91016.33
2019-05-06T02:22:53.897Z,91024.27
2019-05-06T02:25:45.892Z,91017.84
2019-05-06T02:28:34.591Z,91015.34
2019-05-06T02:31:40.245Z,91016.75
2019-05-06T02:34:45.826Z,91017.61
2019-05-06T02:37:39.853Z,91021.41
2019-05-06T02:40:28.369Z,91020.95
2019-05-06T02:43:16.414Z,91027.20
2019-05-06T02:46:04.907Z,91029.66
2019-05-06T02:49:04.039Z,91029.72
2019-05-06T02:51:53.532Z,91037.25
2019-05-06T02:54:42.685Z,91044.63
2019-05-06T02:57:33.506Z,91042.80
2019-05-06T03:00:23.695Z,91046.67
2019-05-06T03:03:10.206Z,91047.12
2019-05-06T03:05:58.569Z,91045.20
2019-05-06T03:08:47.076Z,91038.36
2019-05-06T03:11:34.806Z,91043.43
2019-05-06T03:14:23.703Z,91038.53
2019-05-06T03:17:14.106Z,91037.50
2019-05-06T03:20:04.234Z,91039.59
2019-05-06T03:22:59.000Z,91035.63
2019-05-06T03:25:47.402Z,91037.72
2019-05-06T03:28:35.369Z,91041.39
2019-05-06T03:31:26.115Z,91044.32
2019-05-06T03:34:35.560Z,91045.08
2019-05-06T03:37:07.275Z,91050.94
2019-05-06T03:39:53.113Z,91055.67
2019-05-06T03:42:42.669Z,91055.08
2019-05-06T03:45:50.113Z,91050.80
2019-05-06T03:48:39.901Z,91056.29
2019-05-06T03:51:28.290Z,91054.05
2019-05-06T03:54:16.861Z,91056.03
2019-05-06T03:57:05.253Z,91051.63
2019-05-06T03:59:53.367Z,91053.14
2019-05-06T04:02:43.504Z,91052.30
2019-05-06T04:05:33.413Z,91060.37
2019-05-06T04:08:23.989Z,91058.11
2019-05-06T04:11:13.579Z,91052.02
2019-05-06T04:14:02.817Z,91050.28
2019-05-06T04:17:09.330Z,91057.02
2019-05-06T04:20:12.745Z,91049.06
2019-05-06T04:23:19.618Z,91043.43
2019-05-06T04:26:26.400Z,91040.07
2019-05-06T04:29:14.130Z,91044.65
2019-05-06T04:32:03.532Z,91041.56
2019-05-06T04:34:53.522Z,91048.14
2019-05-06T04:37:42.994Z,91056.80
2019-05-06T04:40:33.111Z,91048.45
2019-05-06T04:43:23.464Z,91053.41
2019-05-06T04:46:13.579Z,91049.09
2019-05-06T04:49:00.033Z,91048.34
2019-05-06T04:51:48.518Z,91051.09
2019-05-06T04:54:36.775Z,91047.36
2019-05-06T04:57:24.518Z,91045.32
2019-05-06T05:00:13.253Z,91047.70
2019-05-06T05:03:03.029Z,91042.63
2019-05-06T05:05:53.038Z,91039.31
2019-05-06T05:08:42.739Z,91043.97
2019-05-06T05:11:45.384Z,91044.98
2019-05-06T05:14:42.308Z,91039.98
2019-05-06T05:17:42.082Z,91042.30
2019-05-06T05:20:37.757Z,91044.41
2019-05-06T05:23:19.792Z,91045.11
2019-05-06T05:26:08.392Z,91044.91
2019-05-06T05:28:56.616Z,91037.08
2019-05-06T05:31:44.116Z,91040.29
2019-05-06T05:34:39.849Z,91038.36
2019-05-06T05:37:22.810Z,91035.23
2019-05-06T05:40:12.812Z,91036.89
2019-05-06T05:43:25.956Z,91037.77
2019-05-06T05:46:14.696Z,91034.81
2019-05-06T05:49:22.554Z,91044.09
2019-05-06T05:52:09.850Z,91044.53
2019-05-06T05:54:58.369Z,91037.50
2019-05-06T05:57:46.816Z,91038.36
2019-05-06T06:00:36.072Z,91037.20
2019-05-06T06:03:24.589Z,91041.99
2019-05-06T06:06:12.754Z,91040.30
2019-05-06T06:09:03.064Z,91043.21
2019-05-06T06:11:55.194Z,91036.19
2019-05-06T06:14:55.596Z,91032.88
2019-05-06T06:18:02.974Z,91038.48
2019-05-06T06:21:18.802Z,91040.33
2019-05-06T06:24:03.133Z,91038.83
2019-05-06T06:26:52.093Z,91045.47
2019-05-06T06:29:41.810Z,91045.61
2019-05-06T06:32:32.611Z,91042.03
2019-05-06T06:35:26.905Z,91034.70
2019-05-06T06:38:20.440Z,91033.23
2019-05-06T06:41:09.456Z,91028.69
2019-05-06T06:44:02.258Z,91022.36
2019-05-06T06:46:52.441Z,91023.47
2019-05-06T06:49:39.751Z,91019.86
2019-05-06T06:52:28.491Z,91021.37
2019-05-06T06:55:18.534Z,91025.83
2019-05-06T06:58:19.002Z,91013.87
2019-05-06T07:01:24.092Z,91003.77
2019-05-06T07:04:23.037Z,91011.09
2019-05-06T07:07:12.961Z,91015.57
2019-05-06T07:10:02.710Z,91016.34
2019-05-06T07:12:50.733Z,91015.59
2019-05-06T07:15:39.227Z,91014.88
2019-05-06T07:18:27.082Z,91010.59
2019-05-06T07:21:26.531Z,91014.39
2019-05-06T07:24:14.518Z,91012.42
2019-05-06T07:27:28.036Z,91007.98
2019-05-06T07:30:16.799Z,90997.31
2019-05-06T07:33:04.588Z,91006.56
2019-05-06T07:35:53.320Z,90999.92
2019-05-06T07:38:52.330Z,90997.82
2019-05-06T07:41:50.385Z,90992.52
2019-05-06T07:45:06.408Z,90993.24
2019-05-06T07:48:03.580Z,90992.41
2019-05-06T07:50:52.108Z,90992.28
2019-05-06T07:53:42.706Z,90996.59
2019-05-06T07:56:32.192Z,90994.18
2019-05-06T07:59:22.539Z,90991.06
2019-05-06T08:02:10.120Z,90994.96
2019-05-06T08:04:58.571Z,90984.78
2019-05-06T08:07:47.067Z,90980.40
2019-05-06T08:10:35.546Z,90988.88
2019-05-06T08:13:23.297Z,90986.53
2019-05-06T08:16:13.079Z,90987.00
2019-05-06T08:19:02.768Z,90980.02
2019-05-06T08:21:52.615Z,90973.66
2019-05-06T08:24:42.274Z,90976.80
2019-05-06T08:27:30.045Z,90981.42
2019-05-06T08:30:18.834Z,90980.56
2019-05-06T08:33:06.646Z,90962.63
2019-05-06T08:36:10.500Z,90980.39
2019-05-06T08:38:56.484Z,90976.27
2019-05-06T08:41:44.561Z,90981.56
2019-05-06T08:44:33.084Z,90977.74
2019-05-06T08:47:22.361Z,90973.22
2019-05-06T08:50:29.400Z,90974.92
2019-05-06T08:53:35.164Z,90971.38
2019-05-06T08:56:23.425Z,90975.88
2019-05-06T08:59:13.885Z,90970.77
2019-05-06T09:02:03.130Z,90964.72
2019-05-06T09:04:51.822Z,90963.22
2019-05-06T09:07:39.401Z,90953.52
2019-05-06T09:10:27.560Z,90951.91
2019-05-06T09:13:15.641Z,90945.34
2019-05-06T09:16:04.359Z,90946.30
2019-05-06T09:18:53.327Z,90933.84
2019-05-06T09:21:45.764Z,90928.75
2019-05-06T09:24:32.100Z,90935.75
2019-05-06T09:27:29.785Z,90927.20
2019-05-06T09:30:24.407Z,90928.63
2019-05-06T09:33:13.780Z,90930.50
2019-05-06T09:36:03.295Z,90927.98
2019-05-06T09:38:53.037Z,90927.88
2019-05-06T09:41:47.111Z,90927.17
2019-05-06T09:44:30.285Z,90914.42
2019-05-06T09:47:34.952Z,90906.80
2019-05-06T09:50:35.457Z,90899.42
2019-05-06T09:53:33.490Z,90905.43
2019-05-06T09:56:27.203Z,90892.44
2019-05-06T09:59:15.776Z,90897.62
2019-05-06T10:02:03.802Z,90892.86
2019-05-06T10:04:52.355Z,90895.66
2019-05-06T10:07:40.640Z,90898.83
2019-05-06T10:10:28.907Z,90894.39
2019-05-06T10:13:17.271Z,90900.89
2019-05-06T10:16:05.731Z,90888.81
2019-05-06T10:18:53.544Z,90886.48
2019-05-06T10:21:42.759Z,90880.77
2019-05-06T10:24:32.359Z,90866.54
2019-05-06T10:27:22.590Z,90873.50
2019-05-06T10:30:12.578Z,90871.19
2019-05-06T10:33:02.150Z,90864.21
2019-05-06T10:35:52.876Z,90865.20
2019-05-06T10:38:48.444Z,90865.73
2019-05-06T10:41:38.101Z,90859.68
2019-05-06T10:44:32.975Z,90861.25
2019-05-06T10:47:22.651Z,90854.61
2019-05-06T10:50:12.554Z,90854.00
2019-05-06T10:53:15.928Z,90858.70
2019-05-06T10:56:23.244Z,90843.16
2019-05-06T10:59:12.971Z,90836.22
2019-05-06T11:02:08.440Z,90838.48
2019-05-06T11:04:56.695Z,90834.47
2019-05-06T11:07:44.623Z,90831.74
2019-05-06T11:10:40.955Z,90830.52
2019-05-06T11:13:24.511Z,90836.72
2019-05-06T11:16:12.951Z,90831.06
2019-05-06T11:19:02.129Z,90831.27
2019-05-06T11:21:52.934Z,90827.94
2019-05-06T11:24:42.050Z,90809.58
2019-05-06T11:27:32.681Z,90813.59
2019-05-06T11:30:42.496Z,90812.20
2019-05-06T11:33:42.324Z,90809.37
2019-05-06T11:36:37.677Z,90810.06
2019-05-06T11:39:26.265Z,90803.71
2019-05-06T11:42:28.084Z,90798.36
2019-05-06T11:45:05.585Z,90788.19
2019-05-06T11:47:55.934Z,90782.84
2019-05-06T11:50:47.228Z,90784.19
2019-05-06T11:53:35.494Z,90786.26
2019-05-06T11:56:04.779Z,90781.91
2019-05-06T11:58:44.749Z,90780.91
2019-05-06T12:01:33.079Z,90777.02
2019-05-06T12:04:02.979Z,90775.31
2019-05-06T12:06:33.186Z,90775.98
2019-05-06T12:09:06.384Z,90780.13
2019-05-06T12:11:33.487Z,90782.12
2019-05-06T12:14:03.170Z,90788.38
2019-05-06T12:16:33.030Z,90789.58
2019-05-06T12:19:03.005Z,90792.38
2019-05-06T12:21:32.943Z,90813.12
2019-05-06T12:24:02.856Z,90848.16
2019-05-06T12:26:32.763Z,90843.22
2019-05-06T12:29:02.412Z,90847.84
2019-05-06T12:31:32.919Z,90846.16
2019-05-06T12:34:02.827Z,90865.59
2019-05-06T12:36:32.703Z,90873.23
2019-05-06T12:39:20.304Z,90866.05
2019-05-06T12:42:15.462Z,90877.80
2019-05-06T12:44:59.167Z,90873.30
2019-05-06T12:47:34.257Z,90872.59
2019-05-06T12:50:03.608Z,90868.41
2019-05-06T12:52:32.885Z,90868.74
2019-05-06T12:55:17.552Z,90878.67
2019-05-06T12:57:34.381Z,90884.31
2019-05-06T13:00:04.429Z,90891.16
2019-05-06T13:02:33.749Z,90877.86
2019-05-06T13:05:04.040Z,90885.56
2019-05-06T13:07:41.935Z,90883.17
2019-05-06T13:10:12.952Z,90889.98
2019-05-06T13:12:43.265Z,90892.28
2019-05-06T13:15:13.430Z,90889.33
2019-05-06T13:17:42.780Z,90890.25
2019-05-06T13:20:14.620Z,90897.62
2019-05-06T13:22:47.610Z,90894.86
2019-05-06T13:25:16.853Z,90902.78
2019-05-06T13:27:46.785Z,90892.52
2019-05-06T13:30:16.468Z,90880.65
2019-05-06T13:32:52.381Z,90872.56
2019-05-06T13:35:23.147Z,90869.81
2019-05-06T13:37:52.798Z,90885.41
2019-05-06T13:40:23.096Z,90883.14
2019-05-06T13:43:13.278Z,90873.13
2019-05-06T13:45:44.483Z,90868.08
2019-05-06T13:48:25.148Z,90869.87
2019-05-06T13:50:56.868Z,90872.11
2019-05-06T13:53:38.721Z,90881.09
2019-05-06T13:55:57.077Z,90880.48
2019-05-06T13:58:26.287Z,90893.84
2019-05-06T14:00:58.540Z,90884.60
2019-05-06T14:03:27.864Z,90893.84
2019-05-06T14:05:57.110Z,90887.28
2019-05-06T14:08:26.347Z,90893.07
2019-05-06T14:10:59.557Z,90891.80
2019-05-06T14:13:26.481Z,90891.94
2019-05-06T14:15:55.721Z,90878.66
2019-05-06T14:18:25.091Z,90873.56
2019-05-06T14:20:54.337Z,90881.16
2019-05-06T14:23:23.579Z,90886.80
2019-05-06T14:26:26.851Z,90888.35
2019-05-06T14:29:02.596Z,90897.88
2019-05-06T14:31:34.477Z,90897.96
2019-05-06T14:34:03.729Z,90904.35
2019-05-06T14:36:32.975Z,90915.73
2019-05-06T14:39:04.750Z,90903.38
2019-05-06T14:41:33.484Z,90900.22
2019-05-06T14:44:05.305Z,90912.36
2019-05-06T14:46:58.840Z,90923.19
2019-05-06T14:49:28.077Z,90929.66
2019-05-06T14:51:57.316Z,90940.23
2019-05-06T14:54:26.679Z,90949.28
2019-05-06T14:56:59.513Z,90936.14
2019-05-06T14:59:28.737Z,90938.37
2019-05-06T15:01:58.001Z,90930.02
2019-05-06T15:04:27.243Z,90933.34
2019-05-06T15:06:56.627Z,90933.34
2019-05-06T15:09:25.908Z,90939.23
2019-05-06T15:11:55.233Z,90950.56
2019-05-06T15:14:24.540Z,90947.48
2019-05-06T15:16:53.927Z,90952.14
2019-05-06T15:19:23.171Z,90947.25
2019-05-06T15:21:53.069Z,90960.80
2019-05-06T15:24:24.385Z,90948.77
2019-05-06T15:26:53.410Z,90957.00
2019-05-06T15:29:23.676Z,90952.39
2019-05-06T15:32:12.961Z,90970.95
2019-05-06T15:35:04.319Z,90971.19
2019-05-06T15:37:42.736Z,90968.09
2019-05-06T15:40:12.359Z,90981.93
2019-05-06T15:42:42.477Z,90975.04
2019-05-06T15:45:12.706Z,90976.33
2019-05-06T15:47:42.802Z,90976.55
2019-05-06T15:50:12.916Z,90975.91
2019-05-06T15:52:43.482Z,90979.06
2019-05-06T15:55:13.403Z,90979.71
2019-05-06T15:57:43.523Z,90978.42
2019-05-06T16:00:18.132Z,90980.00
2019-05-06T16:02:47.360Z,90976.44
2019-05-06T16:05:20.357Z,90983.21
2019-05-06T16:07:47.711Z,90988.93
2019-05-06T16:10:17.200Z,90981.58
2019-05-06T16:12:47.474Z,90981.98
2019-05-06T16:15:17.064Z,90979.05
2019-05-06T16:17:46.404Z,90978.06
2019-05-06T16:20:15.727Z,90978.48
2019-05-06T16:22:47.002Z,90972.06
2019-05-06T16:25:17.756Z,90978.37
2019-05-06T16:27:51.378Z,90978.30
2019-05-06T16:30:24.020Z,90982.41
2019-05-06T16:32:52.687Z,90984.25
2019-05-06T16:35:22.859Z,90982.64
2019-05-06T16:37:52.318Z,90974.53
2019-05-06T16:40:22.949Z,90969.61
2019-05-06T16:42:54.404Z,90969.49
2019-05-06T16:45:23.764Z,90971.83
2019-05-06T16:47:53.750Z,90975.20
2019-05-06T16:50:23.142Z,90972.81
2019-05-06T16:52:52.726Z,90973.05
2019-05-06T16:55:27.720Z,90970.72
2019-05-06T16:58:02.592Z,90974.28
2019-05-06T17:00:33.114Z,90979.88
2019-05-06T17:03:15.041Z,90980.23
2019-05-06T17:06:02.044Z,90974.52
2019-05-06T17:08:42.328Z,90985.84
2019-05-06T17:11:24.318Z,90979.42
2019-05-06T17:13:42.801Z,90981.75
2019-05-06T17:16:13.884Z,90993.83
2019-05-06T17:18:43.601Z,90994.53
2019-05-06T17:21:13.191Z,90994.64
2019-05-06T17:23:42.642Z,90993.81
2019-05-06T17:26:12.741Z,90996.23
2019-05-06T17:28:48.713Z,91004.09
2019-05-06T17:31:34.148Z,91006.78
2019-05-06T17:34:03.427Z,91012.48
2019-05-06T17:36:33.596Z,91021.60
2019-05-06T17:39:04.536Z,91027.03
2019-05-06T17:41:44.859Z,91027.37
2019-05-06T17:44:04.723Z,91030.05
2019-05-06T17:46:38.483Z,91033.50
2019-05-06T17:49:13.911Z,91021.14
2019-05-06T17:51:58.146Z,91030.47
2019-05-06T17:54:27.381Z,91033.34
2019-05-06T17:56:56.610Z,91031.11
2019-05-06T17:59:26.081Z,91041.34
2019-05-06T18:01:57.295Z,91038.86
2019-05-06T18:04:26.523Z,91040.33
2019-05-06T18:06:55.798Z,91033.44
2019-05-06T18:09:25.033Z,91038.69
2019-05-06T18:11:58.824Z,91032.40
2019-05-06T18:14:25.171Z,91041.67
2019-05-06T18:16:54.413Z,91043.80
2019-05-06T18:19:23.747Z,91047.59
2019-05-06T18:21:53.086Z,91043.95
2019-05-06T18:24:23.040Z,91042.28
2019-05-06T18:26:52.961Z,91042.03
2019-05-06T18:29:22.599Z,91050.20
2019-05-06T18:31:52.485Z,91053.14
2019-05-06T18:34:23.216Z,91061.60
2019-05-06T18:36:52.661Z,91061.27
2019-05-06T18:39:22.473Z,91064.91
2019-05-06T18:41:53.095Z,91068.20
2019-05-06T18:44:22.852Z,91074.83
2019-05-06T18:46:53.098Z,91073.76
2019-05-06T18:49:22.757Z,91074.34
2019-05-06T18:51:54.301Z,91076.31
2019-05-06T18:54:25.655Z,91075.89
2019-05-06T18:56:53.992Z,91074.69
2019-05-06T18:59:23.327Z,91080.45
2019-05-06T19:01:53.907Z,91079.80
2019-05-06T19:04:33.427Z,91085.75
2019-05-06T19:07:10.605Z,91082.03
2019-05-06T19:09:58.497Z,91097.93
2019-05-06T19:12:36.636Z,91097.30
2019-05-06T19:14:58.593Z,91099.04
2019-05-06T19:17:27.930Z,91100.06
2019-05-06T19:19:57.159Z,91089.77
2019-05-06T19:22:26.389Z,91089.52
2019-05-06T19:24:55.910Z,91087.74
2019-05-06T19:27:25.137Z,91090.03
2019-05-06T19:29:54.771Z,91091.00
2019-05-06T19:32:24.311Z,91088.64
2019-05-06T19:34:53.557Z,91088.52
2019-05-06T19:37:24.893Z,91093.81
2019-05-06T19:39:54.221Z,91090.63
2019-05-06T19:42:23.455Z,91091.77
2019-05-06T19:44:53.021Z,91094.67
2019-05-06T19:47:22.478Z,91093.69
2019-05-06T19:49:53.205Z,91087.91
2019-05-06T19:52:24.972Z,91090.24
2019-05-06T19:54:53.729Z,91086.70
2019-05-06T19:57:22.964Z,91084.88
2019-05-06T19:59:52.258Z,91078.73
2019-05-06T20:02:25.193Z,91088.70
2019-05-06T20:04:56.671Z,91084.02
2019-05-06T20:07:38.324Z,91084.17
2019-05-06T20:10:26.457Z,91090.46
2019-05-06T20:13:01.972Z,91086.88
2019-05-06T20:15:35.392Z,91087.33
2019-05-06T20:18:05.800Z,91093.72
2019-05-06T20:20:35.327Z,91090.66
2019-05-06T20:23:05.053Z,91100.55
2019-05-06T20:25:36.944Z,91088.23
2019-05-06T20:28:05.505Z,91082.99
2019-05-06T20:30:34.744Z,91072.91
2019-05-06T20:33:04.021Z,91081.92
2019-05-06T20:35:33.769Z,91082.50
2019-05-06T20:38:03.098Z,91087.67
2019-05-06T20:40:32.899Z,91086.84
2019-05-06T20:43:14.206Z,91088.44
2019-05-06T20:45:35.337Z,91082.93
2019-05-06T20:48:04.234Z,91072.45
2019-05-06T20:50:33.708Z,91064.99
2019-05-06T20:53:02.934Z,91072.07
2019-05-06T20:55:35.224Z,91061.77
2019-05-06T20:58:03.059Z,91061.95
2019-05-06T21:00:33.471Z,91066.36
2019-05-06T21:03:03.191Z,91060.75
2019-05-06T21:05:32.485Z,91064.31
2019-05-06T21:08:02.288Z,91067.30
2019-05-06T21:10:32.972Z,91066.03
2019-05-06T21:13:02.688Z,91074.98
2019-05-06T21:15:32.579Z,91079.81
2019-05-06T21:18:04.310Z,91073.44
2019-05-06T21:20:33.180Z,91074.52
2019-05-06T21:23:02.658Z,91070.04
2019-05-06T21:25:32.499Z,91069.52
2019-05-06T21:28:02.878Z,91065.76
2019-05-06T21:30:32.652Z,91070.45
2019-05-06T21:33:01.922Z,91064.83
2019-05-06T21:35:33.196Z,91058.81
2019-05-06T21:38:02.630Z,91059.06
2019-05-06T21:40:32.417Z,91056.14
2019-05-06T21:43:02.237Z,91054.83
2019-05-06T21:45:33.141Z,91046.98
2019-05-06T21:48:02.997Z,91056.12
2019-05-06T21:50:33.233Z,91051.81
2019-05-06T21:53:03.041Z,91049.56
2019-05-06T21:55:32.531Z,91053.75
2019-05-06T21:58:02.392Z,91055.30
2019-05-06T22:00:43.321Z,91058.72
2019-05-06T22:03:13.476Z,91065.94
2019-05-06T22:05:42.936Z,91061.22
2019-05-06T22:08:12.999Z,91064.66
2019-05-06T22:10:42.461Z,91064.06
2019-05-06T22:13:14.274Z,91065.03
2019-05-06T22:15:42.579Z,91063.13
2019-05-06T22:18:12.533Z,91068.72
2019-05-06T22:20:59.383Z,91062.66
2019-05-06T22:23:48.117Z,91066.04
2019-05-06T22:26:17.447Z,91064.26
2019-05-06T22:28:46.784Z,91063.55
2019-05-06T22:31:16.026Z,91067.94
2019-05-06T22:33:45.289Z,91067.52
2019-05-06T22:36:14.623Z,91072.86
2019-05-06T22:38:44.353Z,91074.41
2019-05-06T22:41:14.043Z,91074.94
2019-05-06T22:43:43.438Z,91078.89
2019-05-06T22:46:12.684Z,91078.41
2019-05-06T22:48:43.363Z,91076.84
2019-05-06T22:51:12.928Z,91083.45
2019-05-06T22:53:42.635Z,91079.59
2019-05-06T22:56:14.268Z,91078.11
2019-05-06T22:58:43.507Z,91074.88
2019-05-06T23:01:32.428Z,91075.37
2019-05-06T23:04:02.041Z,91072.58
2019-05-06T23:06:32.984Z,91082.30
2019-05-06T23:09:02.680Z,91077.99
2019-05-06T23:11:32.780Z,91073.84
2019-05-06T23:14:02.835Z,91075.73
2019-05-06T23:16:34.654Z,91078.95
2019-05-06T23:19:03.228Z,91070.09
2019-05-06T23:21:33.734Z,91071.02
2019-05-06T23:24:03.196Z,91078.20
2019-05-06T23:26:32.419Z,91073.05
2019-05-06T23:29:02.408Z,91069.31
2019-05-06T23:31:33.223Z,91073.42
2019-05-06T23:34:04.898Z,91065.61
2019-05-06T23:36:52.834Z,91073.02
2019-05-06T23:39:57.788Z,91064.96
2019-05-06T23:42:44.820Z,91071.23
2019-05-06T23:45:32.416Z,91066.52
2019-05-06T23:48:19.704Z,91071.79
2019-05-06T23:51:06.427Z,91069.26
2019-05-06T23:53:53.575Z,91075.94
2019-05-06T23:56:44.269Z,91078.33
2019-05-06T23:59:14.558Z,91076.85
